Time;durP1;ratioP1;P1;durP2;ratioP2;P2;SDS_P1;SDS_P2;PMS_P1;PMS_P2;Temp;Humidity;BMP_temperature;BMP_pressure;BME280_temperature;BME280_humidity;BME280_pressure;Samples;Min_cycle;Max_cycle;Signal;HPM_P1;HPM_P2
2022/10/25 00:01:19;;;;;;;6.43;1.45;;;;;;;15.59;80.06;101409.63;4833662;29;20523;-75
2022/10/25 00:03:47;;;;;;;8.88;1.50;;;;;;;15.51;80.84;101413.81;4825122;29;20045;-77
2022/10/25 00:06:16;;;;;;;5.90;1.58;;;;;;;15.41;79.91;101417.94;4831429;29;20404;-75
2022/10/25 00:08:45;;;;;;;5.65;1.63;;;;;;;15.33;79.27;101413.44;4829580;29;20050;-73
2022/10/25 00:11:20;;;;;;;2.45;1.08;;;;;;;15.25;79.91;101421.97;4834868;29;20500;-71
2022/10/25 00:13:50;;;;;;;5.57;1.45;;;;;;;15.17;80.73;101423.56;4832918;29;20049;-72
2022/10/25 00:16:22;;;;;;;5.93;1.27;;;;;;;15.07;81.97;101434.59;4829971;29;20488;-73
2022/10/25 00:18:51;;;;;;;6.75;1.48;;;;;;;14.97;81.45;101436.13;4833273;29;20508;-75
2022/10/25 00:21:20;;;;;;;3.90;1.30;;;;;;;14.88;81.46;101439.41;4829493;29;20500;-72
2022/10/25 00:23:48;;;;;;;4.38;1.20;;;;;;;14.80;81.82;101440.97;4835315;29;20082;-72
2022/10/25 00:26:17;;;;;;;4.50;1.30;;;;;;;14.74;82.53;101442.56;4831319;29;20053;-72
2022/10/25 00:28:46;;;;;;;5.85;1.40;;;;;;;14.68;83.07;101443.28;4838113;29;20736;-72
2022/10/25 00:31:17;;;;;;;4.93;1.30;;;;;;;14.62;82.74;101440.56;4837406;29;20390;-72
2022/10/25 00:33:47;;;;;;;5.88;1.27;;;;;;;14.58;81.86;101438.72;4831077;29;20184;-71
2022/10/25 00:36:17;;;;;;;2.97;1.60;;;;;;;14.53;83.73;101448.09;4831738;29;20046;-80
2022/10/25 00:38:46;;;;;;;3.78;1.77;;;;;;;14.50;84.22;101448.00;4835881;29;20497;-79
2022/10/25 00:41:16;;;;;;;6.43;1.58;;;;;;;14.45;85.35;101441.00;4834620;29;20081;-80
2022/10/25 00:43:47;;;;;;;4.97;1.48;;;;;;;14.43;87.48;101447.88;4838452;29;20471;-80
2022/10/25 00:46:22;;;;;;;4.68;1.77;;;;;;;14.36;90.34;101451.19;4837087;29;21280;-78
2022/10/25 00:48:58;;;;;;;6.03;2.03;;;;;;;14.30;90.84;101456.22;4840101;29;20519;-79
2022/10/25 00:51:31;;;;;;;6.22;2.08;;;;;;;14.27;90.51;101456.16;4840814;29;20049;-78
2022/10/25 00:53:59;;;;;;;6.68;1.45;;;;;;;14.21;90.94;101456.00;4836490;29;20611;-79
2022/10/25 00:56:32;;;;;;;6.13;1.38;;;;;;;14.16;90.20;101452.41;4832833;29;20054;-79
2022/10/25 00:59:05;;;;;;;11.40;2.38;;;;;;;14.13;90.97;101463.59;4834474;29;20589;-80
2022/10/25 01:01:33;;;;;;;;;;;;;;;14.07;91.73;101465.16;4837415;29;20058;-74
2022/10/25 01:04:08;;;;;;;7.57;2.03;;;;;;;14.00;92.44;101472.78;4836081;29;19932;-74
2022/10/25 01:06:40;;;;;;;5.90;1.45;;;;;;;13.96;92.87;101470.06;4830603;29;20496;-79
2022/10/25 01:09:11;;;;;;;4.75;1.73;;;;;;;13.89;92.69;101471.63;4832170;29;20119;-77
2022/10/25 01:11:39;;;;;;;6.43;1.48;;;;;;;13.83;92.69;101481.84;4829168;29;20053;-79
2022/10/25 01:14:11;;;;;;;3.75;1.08;;;;;;;13.77;91.87;101484.31;4834441;29;20658;-78
2022/10/25 01:16:49;;;;;;;4.40;1.08;;;;;;;13.67;90.75;101487.47;4834075;29;20050;-78
2022/10/25 01:19:36;;;;;;;3.65;1.05;;;;;;;13.57;91.30;101502.81;4834328;29;20046;-77
2022/10/25 01:22:09;;;;;;;4.63;1.40;;;;;;;13.45;90.13;101502.44;4834416;29;20707;-77
2022/10/25 01:25:10;;;;;;;2.67;0.80;;;;;;;13.30;90.35;101504.59;4837295;29;20062;-82
2022/10/25 01:27:53;;;;;;;3.40;1.20;;;;;;;13.18;91.73;101503.34;4824959;29;20532;-75
2022/10/25 01:30:24;;;;;;;5.65;1.27;;;;;;;13.08;94.80;101516.91;4836463;29;20050;-73
2022/10/25 01:33:12;;;;;;;3.50;1.00;;;;;;;13.00;94.22;101508.84;4827958;29;20709;-76
2022/10/25 01:35:53;;;;;;;4.07;1.15;;;;;;;12.95;94.71;101509.53;4833979;29;20058;-74
2022/10/25 01:38:30;;;;;;;7.75;1.30;;;;;;;12.86;96.21;101514.44;4833266;29;20057;-73
2022/10/25 01:41:10;;;;;;;4.57;1.20;;;;;;;12.75;95.48;101517.56;4835045;29;20057;-74
2022/10/25 01:43:49;;;;;;;3.67;1.35;;;;;;;12.67;96.90;101521.63;4831213;29;20717;-73
2022/10/25 01:46:26;;;;;;;3.47;0.70;;;;;;;12.61;98.94;101529.22;4835279;29;20054;-73
2022/10/25 01:49:02;;;;;;;2.45;1.10;;;;;;;12.56;99.45;101535.97;4837091;29;20038;-73
2022/10/25 01:51:30;;;;;;;4.65;1.33;;;;;;;12.50;98.98;101531.44;4836435;29;20505;-72
2022/10/25 01:53:59;;;;;;;4.65;0.65;;;;;;;12.43;99.37;101541.56;4831856;29;20748;-76
2022/10/25 01:56:31;;;;;;;4.30;1.17;;;;;;;12.34;100.00;101553.38;4836658;29;20050;-74
2022/10/25 01:59:21;;;;;;;1.90;0.90;;;;;;;12.29;100.00;101557.53;4835779;29;20042;-76
2022/10/25 02:02:01;;;;;;;5.55;0.95;;;;;;;12.24;100.00;101564.28;4836955;29;20053;-75
2022/10/25 02:04:43;;;;;;;5.65;1.20;;;;;;;12.17;100.00;101557.09;4834555;29;20061;-76
2022/10/25 02:07:19;;;;;;;4.77;1.47;;;;;;;12.10;100.00;101560.31;4835701;29;20050;-77
2022/10/25 02:10:00;;;;;;;4.93;0.93;;;;;;;12.00;100.00;101568.56;4834485;29;20054;-77
2022/10/25 02:12:34;;;;;;;2.88;1.23;;;;;;;11.93;100.00;101576.16;4830811;29;20050;-76
2022/10/25 02:15:10;;;;;;;7.93;1.67;;;;;;;11.86;100.00;101576.69;4835409;29;20725;-75
2022/10/25 02:17:45;;;;;;;3.47;1.02;;;;;;;11.86;100.00;101583.59;4836740;29;20154;-75
2022/10/25 02:20:19;;;;;;;2.45;1.00;;;;;;;11.85;100.00;101590.50;4835703;29;21331;-75
2022/10/25 02:22:49;;;;;;;3.97;0.93;;;;;;;11.86;100.00;101592.25;4832264;29;20066;-76
2022/10/25 02:25:19;;;;;;;9.55;1.38;;;;;;;11.82;100.00;101595.56;4835866;29;20504;-73
2022/10/25 02:27:49;;;;;;;2.65;0.93;;;;;;;11.81;100.00;101598.09;4836933;29;20521;-74
2022/10/25 02:30:18;;;;;;;6.68;1.10;;;;;;;11.77;100.00;101602.28;4839367;29;20045;-74
2022/10/25 02:32:47;;;;;;;6.40;0.98;;;;;;;11.77;100.00;101607.44;4834699;29;20061;-74
2022/10/25 02:35:19;;;;;;;4.85;1.15;;;;;;;11.77;100.00;101612.66;4833174;29;20067;-75
2022/10/25 02:37:48;;;;;;;6.55;2.15;;;;;;;11.74;100.00;101608.22;4824518;29;20114;-75
2022/10/25 02:40:17;;;;;;;3.78;1.23;;;;;;;11.68;100.00;101617.47;4834129;29;20053;-75
2022/10/25 02:42:45;;;;;;;7.00;1.58;;;;;;;11.60;100.00;101608.53;4833123;29;20060;-75
2022/10/25 02:45:14;;;;;;;8.13;1.85;;;;;;;11.56;100.00;101624.78;4829228;29;20424;-75
2022/10/25 02:47:42;;;;;;;12.45;1.80;;;;;;;11.53;100.00;101626.44;4832828;29;20062;-75
2022/10/25 02:50:11;;;;;;;4.60;2.05;;;;;;;11.54;100.00;101627.31;4836862;29;21175;-74
2022/10/25 02:52:41;;;;;;;2.05;1.30;;;;;;;11.51;100.00;101634.97;4835271;29;20488;-74
2022/10/25 02:55:10;;;;;;;3.85;0.90;;;;;;;11.47;100.00;101639.13;4830890;29;20078;-73
2022/10/25 02:57:39;;;;;;;3.90;1.30;;;;;;;11.44;100.00;101638.16;4833936;29;20102;-72
2022/10/25 03:00:09;;;;;;;4.18;1.77;;;;;;;11.40;100.00;101641.44;4829154;29;20065;-73
2022/10/25 03:02:38;;;;;;;4.88;1.63;;;;;;;11.34;100.00;101642.09;4834759;29;20046;-73
2022/10/25 03:05:07;;;;;;;4.50;1.33;;;;;;;11.29;100.00;101640.97;4832256;29;20493;-73
2022/10/25 03:07:35;;;;;;;10.25;2.00;;;;;;;11.28;100.00;101652.19;4829702;29;20707;-72
2022/10/25 03:10:06;;;;;;;3.70;1.10;;;;;;;11.27;100.00;101652.97;4830371;29;20058;-71
2022/10/25 03:12:35;;;;;;;3.17;1.10;;;;;;;11.30;100.00;101655.72;4835060;29;20103;-71
2022/10/25 03:15:03;;;;;;;3.22;1.10;;;;;;;11.33;100.00;101658.44;4831883;29;20492;-72
2022/10/25 03:17:38;;;;;;;4.60;1.30;;;;;;;11.34;100.00;101660.22;4831961;29;20603;-73
2022/10/25 03:20:08;;;;;;;5.63;1.35;;;;;;;11.32;100.00;101659.25;4832492;29;20508;-72
2022/10/25 03:22:37;;;;;;;4.88;1.27;;;;;;;11.31;100.00;101660.06;4834120;29;20523;-72
2022/10/25 03:25:08;;;;;;;1.88;1.27;;;;;;;11.32;100.00;101661.84;4832956;29;20130;-73
2022/10/25 03:27:37;;;;;;;3.00;1.25;;;;;;;11.29;100.00;101659.13;4834698;29;20126;-73
2022/10/25 03:30:06;;;;;;;4.15;1.17;;;;;;;11.28;100.00;101659.97;4829350;29;20062;-72
2022/10/25 03:32:35;;;;;;;1.25;0.73;;;;;;;11.26;100.00;101665.06;4834658;29;20536;-73
2022/10/25 03:35:03;;;;;;;4.32;1.23;;;;;;;11.27;100.00;101671.13;4832613;29;20496;-72
2022/10/25 03:37:32;;;;;;;3.13;1.38;;;;;;;11.31;100.00;101667.84;4831173;29;20426;-72
2022/10/25 03:40:00;;;;;;;4.65;1.73;;;;;;;11.30;100.00;101676.44;4833258;29;20413;-74
2022/10/25 03:42:31;;;;;;;3.47;1.15;;;;;;;11.34;100.00;101686.13;4837546;29;20079;-74
2022/10/25 03:44:59;;;;;;;1.98;1.10;;;;;;;11.37;100.00;101688.84;4833766;29;20150;-73
2022/10/25 03:47:28;;;;;;;6.97;1.20;;;;;;;11.35;100.00;101697.38;4837093;29;20054;-74
2022/10/25 03:49:57;;;;;;;2.78;1.00;;;;;;;11.31;100.00;101688.56;4835150;29;20640;-72
2022/10/25 03:52:26;;;;;;;3.55;1.55;;;;;;;11.30;100.00;101686.81;4829189;29;20054;-72
2022/10/25 03:54:54;;;;;;;5.95;1.23;;;;;;;11.28;100.00;101683.28;4835600;29;20500;-74
2022/10/25 03:57:23;;;;;;;4.70;1.95;;;;;;;11.20;100.00;101689.81;4835771;29;20046;-73
2022/10/25 03:59:53;;;;;;;5.20;1.77;;;;;;;11.13;100.00;101699.03;4836364;29;20113;-75
2022/10/25 04:02:22;;;;;;;7.20;1.25;;;;;;;11.07;100.00;101694.50;4837780;29;20049;-73
2022/10/25 04:04:50;;;;;;;4.10;1.55;;;;;;;11.06;100.00;101697.03;4839232;29;20071;-72
2022/10/25 04:07:19;;;;;;;2.95;1.40;;;;;;;11.07;100.00;101699.69;4837588;29;20050;-73
2022/10/25 04:09:48;;;;;;;7.35;1.67;;;;;;;11.06;100.00;101695.34;4837023;29;20140;-72
2022/10/25 04:12:16;;;;;;;5.47;1.80;;;;;;;11.04;100.00;101709.00;4831807;29;20046;-73
2022/10/25 04:14:45;;;;;;;10.13;1.85;;;;;;;11.01;100.00;101712.38;4836569;29;20070;-72
2022/10/25 04:17:15;;;;;;;3.95;1.30;;;;;;;11.01;100.00;101709.78;4837014;29;20062;-72
2022/10/25 04:19:43;;;;;;;1.75;1.25;;;;;;;11.00;100.00;101713.19;4837183;29;20114;-73
2022/10/25 04:22:13;;;;;;;5.07;1.60;;;;;;;10.97;100.00;101717.34;4843914;29;20058;-73
2022/10/25 04:24:42;;;;;;;3.10;1.15;;;;;;;10.94;100.00;101727.59;4831276;29;20520;-74
2022/10/25 04:27:10;;;;;;;2.03;1.20;;;;;;;10.88;100.00;101720.41;4838606;29;20054;-73
2022/10/25 04:29:39;;;;;;;3.22;1.38;;;;;;;10.85;100.00;101722.88;4838453;29;20050;-73
2022/10/25 04:32:08;;;;;;;5.40;1.30;;;;;;;10.80;100.00;101724.38;4840010;29;20110;-73
2022/10/25 04:34:38;;;;;;;3.50;1.50;;;;;;;10.77;100.00;101734.63;4836492;29;20054;-76
2022/10/25 04:37:07;;;;;;;3.40;1.60;;;;;;;10.69;100.00;101727.38;4837671;29;20630;-73
2022/10/25 04:39:35;;;;;;;5.80;1.52;;;;;;;10.66;100.00;101737.59;4840615;29;20520;-74
2022/10/25 04:42:04;;;;;;;3.78;1.83;;;;;;;10.66;100.00;101731.53;4837862;29;20049;-74
2022/10/25 04:44:32;;;;;;;2.63;1.70;;;;;;;10.57;100.00;101716.47;4830009;29;20065;-73
2022/10/25 04:47:08;;;;;;;5.10;2.17;;;;;;;10.64;100.00;101734.06;4836159;29;20505;-73
2022/10/25 04:49:39;;;;;;;3.40;2.00;;;;;;;10.62;100.00;101735.69;4837043;29;20050;-73
2022/10/25 04:52:07;;;;;;;3.13;1.40;;;;;;;10.60;100.00;101742.50;4825261;29;20050;-74
2022/10/25 04:54:36;;;;;;;2.92;2.00;;;;;;;10.59;100.00;101740.72;4838090;29;20480;-73
2022/10/25 04:57:06;;;;;;;5.30;1.73;;;;;;;10.55;100.00;101744.00;4838724;29;20050;-74
2022/10/25 04:59:34;;;;;;;3.83;2.10;;;;;;;10.52;100.00;101748.16;4827991;29;20047;-75
2022/10/25 05:02:03;;;;;;;6.65;2.03;;;;;;;10.49;100.00;101748.91;4839957;29;20060;-74
2022/10/25 05:04:31;;;;;;;4.38;2.08;;;;;;;10.45;100.00;101753.03;4837847;29;20062;-73
2022/10/25 05:07:01;;;;;;;5.20;2.15;;;;;;;10.43;100.00;101764.13;4827855;29;20053;-73
2022/10/25 05:09:30;;;;;;;11.38;2.63;;;;;;;10.37;100.00;101753.50;4832602;29;20058;-73
2022/10/25 05:11:58;;;;;;;3.15;1.80;;;;;;;10.34;100.00;101763.72;4834609;29;20114;-75
2022/10/25 05:14:27;;;;;;;3.75;2.50;;;;;;;10.32;100.00;101765.34;4831425;29;20541;-72
2022/10/25 05:16:55;;;;;;;9.13;2.92;;;;;;;10.31;100.00;101771.31;4838971;29;20149;-78
2022/10/25 05:19:24;;;;;;;4.80;2.60;;;;;;;10.29;100.00;101770.38;4837626;29;20058;-78
2022/10/25 05:21:53;;;;;;;4.63;2.28;;;;;;;10.25;100.00;101770.19;4839698;29;20053;-78
2022/10/25 05:24:23;;;;;;;3.22;2.47;;;;;;;10.22;100.00;101782.09;4834225;29;20118;-78
2022/10/25 05:26:52;;;;;;;13.10;2.78;;;;;;;10.19;100.00;101779.34;4832056;29;20113;-77
2022/10/25 05:29:20;;;;;;;4.25;2.40;;;;;;;10.17;100.00;101788.72;4837491;29;20050;-78
2022/10/25 05:31:49;;;;;;;7.82;2.00;;;;;;;10.16;100.00;101795.63;4830695;29;20064;-78
2022/10/25 05:34:18;;;;;;;13.63;2.30;;;;;;;10.15;100.00;101786.09;4837454;29;20057;-77
2022/10/25 05:36:46;;;;;;;5.75;3.03;;;;;;;10.15;100.00;101788.69;4835330;29;20110;-78
2022/10/25 05:39:15;;;;;;;3.92;2.50;;;;;;;10.11;100.00;101785.88;4829368;29;20492;-79
2022/10/25 05:41:45;;;;;;;5.95;2.03;;;;;;;10.07;100.00;101790.00;4831684;29;20054;-79
2022/10/25 05:44:15;;;;;;;8.85;2.13;;;;;;;10.05;100.00;101792.50;4835055;29;20050;-79
2022/10/25 05:46:59;;;;;;;;;;;;;;;;;;;;;
2022/10/25 05:49:27;;;;;;;9.18;4.38;;;;;;;9.97;100.00;101793.84;4832314;29;20066;-79
2022/10/25 05:51:56;;;;;;;10.05;2.85;;;;;;;9.94;100.00;101800.56;4830908;29;20504;-79
2022/10/25 05:54:25;;;;;;;8.65;2.70;;;;;;;9.93;100.00;101806.56;4829505;29;20670;-78
2022/10/25 05:56:55;;;;;;;6.40;2.22;;;;;;;9.90;100.00;101807.28;4837845;29;20501;-78
2022/10/25 05:59:24;;;;;;;5.43;2.55;;;;;;;9.92;100.00;101804.75;4834141;29;20054;-78
2022/10/25 06:01:52;;;;;;;5.63;2.75;;;;;;;9.92;100.00;101807.34;4836665;29;20053;-77
2022/10/25 06:04:21;;;;;;;7.22;1.98;;;;;;;9.93;100.00;101807.44;4836938;29;20064;-78
2022/10/25 06:06:51;;;;;;;3.25;2.38;;;;;;;9.91;100.00;101816.81;4836747;29;20594;-78
2022/10/25 06:09:25;;;;;;;5.35;2.55;;;;;;;9.91;100.00;101821.09;4839384;29;20053;-78
2022/10/25 06:11:56;;;;;;;8.75;2.60;;;;;;;9.88;100.00;101814.09;4833186;29;20496;-79
2022/10/25 06:14:24;;;;;;;6.22;3.38;;;;;;;9.86;100.00;101819.16;4837261;29;20061;-79
2022/10/25 06:16:53;;;;;;;5.53;2.75;;;;;;;9.84;100.00;101825.97;4836555;29;20054;-79
2022/10/25 06:19:22;;;;;;;8.00;3.05;;;;;;;9.84;100.00;101833.72;4825361;29;20588;-78
2022/10/25 06:21:50;;;;;;;6.13;2.38;;;;;;;9.85;100.00;101838.09;4832226;29;20489;-78
2022/10/25 06:24:19;;;;;;;7.85;3.42;;;;;;;9.86;100.00;101837.25;4837651;29;20052;-78
2022/10/25 06:26:48;;;;;;;5.13;2.20;;;;;;;9.89;100.00;101843.41;4839182;29;20130;-78
2022/10/25 06:29:18;;;;;;;6.22;3.13;;;;;;;9.91;100.00;101839.19;4835956;29;20050;-79
2022/10/25 06:31:48;;;;;;;6.57;2.75;;;;;;;9.92;100.00;101839.28;4837348;29;20072;-78
2022/10/25 06:34:16;;;;;;;3.80;2.22;;;;;;;9.92;100.00;101833.19;4828302;29;20086;-79
2022/10/25 06:36:45;;;;;;;5.38;2.50;;;;;;;9.91;100.00;101841.78;4837852;29;20117;-77
2022/10/25 06:39:13;;;;;;;7.18;2.35;;;;;;;9.90;100.00;101837.44;4834650;29;20051;-78
2022/10/25 06:41:42;;;;;;;4.63;2.60;;;;;;;9.93;100.00;101845.34;4832829;29;20068;-79
2022/10/25 06:44:10;;;;;;;3.67;1.83;;;;;;;9.88;100.00;101841.66;4831527;29;20110;-78
2022/10/25 06:46:42;;;;;;;5.50;2.10;;;;;;;9.85;100.00;101844.97;4835907;29;20504;-78
2022/10/25 06:49:11;;;;;;;5.88;2.30;;;;;;;9.84;100.00;101838.88;4836418;29;20058;-79
2022/10/25 06:51:39;;;;;;;4.63;1.92;;;;;;;9.84;100.00;101844.06;4836342;29;20073;-79
2022/10/25 06:54:08;;;;;;;9.20;2.33;;;;;;;9.80;100.00;101830.91;4835638;29;20060;-79
2022/10/25 06:56:37;;;;;;;7.68;2.25;;;;;;;9.72;100.00;101848.63;4837998;29;20533;-78
2022/10/25 06:59:08;;;;;;;4.45;1.98;;;;;;;9.69;100.00;101843.31;4835246;29;20622;-78
2022/10/25 07:01:36;;;;;;;6.55;2.47;;;;;;;9.68;100.00;101849.28;4836944;29;20058;-79
2022/10/25 07:04:07;;;;;;;3.75;1.98;;;;;;;9.65;100.00;101849.13;4836525;29;20721;-78
2022/10/25 07:06:36;;;;;;;3.97;1.70;;;;;;;9.60;100.00;101848.00;4832328;29;20041;-77
2022/10/25 07:09:08;;;;;;;6.32;2.15;;;;;;;9.59;100.00;101846.22;4837747;29;20061;-77
2022/10/25 07:11:37;;;;;;;5.72;2.00;;;;;;;9.56;100.00;101857.28;4834440;29;20049;-75
2022/10/25 07:14:05;;;;;;;2.63;1.60;;;;;;;9.56;100.00;101851.25;4834496;29;20058;-77
2022/10/25 07:16:34;;;;;;;6.57;2.20;;;;;;;9.54;100.00;101855.44;4833016;29;20077;-76
2022/10/25 07:19:04;;;;;;;5.25;1.85;;;;;;;9.50;100.00;101856.09;4834309;29;21224;-77
2022/10/25 07:21:35;;;;;;;3.67;1.60;;;;;;;9.47;100.00;101861.09;4834747;29;20677;-76
2022/10/25 07:24:03;;;;;;;2.90;2.03;;;;;;;9.43;100.00;101865.22;4831570;29;20548;-76
2022/10/25 07:26:33;;;;;;;5.25;2.65;;;;;;;9.39;100.00;101864.19;4834044;29;20554;-77
2022/10/25 07:29:03;;;;;;;8.52;2.40;;;;;;;9.34;100.00;101865.63;4835325;29;20051;-76
2022/10/25 07:31:34;;;;;;;6.00;3.33;;;;;;;9.29;100.00;101867.06;4830825;29;20474;-76
2022/10/25 07:34:03;;;;;;;8.13;3.45;;;;;;;9.27;100.00;101865.22;4837568;29;20158;-77
2022/10/25 07:36:34;;;;;;;4.63;2.17;;;;;;;9.22;99.99;101862.41;4835262;29;20056;-76
2022/10/25 07:39:03;;;;;;;11.77;2.70;;;;;;;9.17;100.00;101857.00;4833471;29;20054;-75
2022/10/25 07:41:31;;;;;;;6.82;2.65;;;;;;;9.14;100.00;101856.84;4833997;29;20075;-76
2022/10/25 07:44:00;;;;;;;6.95;2.60;;;;;;;9.08;100.00;101851.34;4834934;29;20054;-75
2022/10/25 07:46:28;;;;;;;6.13;2.50;;;;;;;9.05;100.00;101850.28;4829543;29;20092;-76
2022/10/25 07:48:57;;;;;;;7.97;2.80;;;;;;;9.02;100.00;101846.75;4832191;29;20049;-76
2022/10/25 07:51:25;;;;;;;2.83;1.60;;;;;;;8.96;100.00;101841.25;4834125;29;20629;-76
2022/10/25 07:53:56;;;;;;;2.35;1.73;;;;;;;8.92;100.00;101843.59;4834875;29;20057;-76
2022/10/25 07:56:24;;;;;;;4.57;1.65;;;;;;;8.90;100.00;101846.09;4834207;29;20053;-76
2022/10/25 07:58:53;;;;;;;3.60;1.38;;;;;;;8.89;100.00;101852.06;4833220;29;20059;-75
2022/10/25 08:01:24;;;;;;;3.40;1.40;;;;;;;8.85;100.00;101855.28;4831527;29;20489;-76
2022/10/25 08:03:53;;;;;;;7.22;2.35;;;;;;;8.83;100.00;101849.16;4827102;29;20057;-76
2022/10/25 08:06:22;;;;;;;4.32;2.17;;;;;;;8.80;100.00;101855.03;4835105;29;20061;-76
2022/10/25 08:08:51;;;;;;;3.22;1.70;;;;;;;8.76;99.20;101853.09;4830207;29;20058;-76
2022/10/25 08:11:21;;;;;;;4.43;1.65;;;;;;;8.72;99.31;101850.25;4834590;29;20061;-76
2022/10/25 08:13:50;;;;;;;3.67;1.88;;;;;;;8.68;98.58;101844.06;4836304;29;20053;-76
2022/10/25 08:16:19;;;;;;;6.45;2.47;;;;;;;8.64;99.70;101844.69;4833648;29;20053;-76
2022/10/25 08:18:48;;;;;;;6.57;1.63;;;;;;;8.62;99.32;101853.16;4822328;29;20069;-76
2022/10/25 08:21:16;;;;;;;2.92;1.73;;;;;;;8.58;98.13;101857.25;4836118;29;21046;-78
2022/10/25 08:23:45;;;;;;;3.55;1.60;;;;;;;8.54;98.38;101850.13;4834276;29;20060;-76
2022/10/25 08:26:14;;;;;;;4.05;1.83;;;;;;;8.51;98.31;101847.38;4833829;29;20607;-76
2022/10/25 08:28:44;;;;;;;4.82;1.63;;;;;;;8.47;99.50;101851.47;4835773;29;20077;-76
2022/10/25 08:31:13;;;;;;;4.97;1.95;;;;;;;8.42;98.99;101850.34;4832315;29;20061;-76
2022/10/25 08:33:41;;;;;;;2.33;1.40;;;;;;;8.41;98.58;101864.06;4835407;29;20057;-77
2022/10/25 08:36:11;;;;;;;2.97;2.17;;;;;;;8.39;98.65;101865.63;4835573;29;20047;-75
2022/10/25 08:38:39;;;;;;;5.03;1.60;;;;;;;8.37;99.18;101867.22;4833874;29;20057;-76
2022/10/25 08:41:14;;;;;;;6.00;2.00;;;;;;;8.35;98.83;101873.97;4835099;29;20578;-76
2022/10/25 08:44:11;;;;;;;3.08;1.98;;;;;;;8.33;99.48;101893.63;4836414;29;20577;-77
2022/10/25 08:46:43;;;;;;;2.40;1.75;;;;;;;8.30;99.59;101888.31;4838695;29;20114;-76
2022/10/25 08:49:20;;;;;;;6.47;2.03;;;;;;;8.29;100.00;101894.25;4835047;29;20047;-77
2022/10/25 08:51:51;;;;;;;2.80;2.20;;;;;;;8.25;99.81;101897.47;4833663;29;20042;-77
2022/10/25 08:54:27;;;;;;;3.67;1.35;;;;;;;8.15;100.00;101889.22;4835947;29;20722;-77
2022/10/25 08:57:06;;;;;;;3.40;1.83;;;;;;;8.15;100.00;101889.22;4838088;29;20106;-76
2022/10/25 08:59:40;;;;;;;6.03;2.00;;;;;;;8.17;100.00;101899.59;4834267;29;20065;-77
2022/10/25 09:02:18;;;;;;;4.00;1.67;;;;;;;8.19;100.00;101892.84;4838797;29;20061;-77
2022/10/25 09:04:47;;;;;;;2.35;1.58;;;;;;;8.22;100.00;101886.97;4833774;29;20049;-77
2022/10/25 09:07:34;;;;;;;2.63;1.40;;;;;;;8.21;100.00;101890.38;4839161;29;20488;-77
2022/10/25 09:10:12;;;;;;;1.67;1.30;;;;;;;8.23;100.00;101883.63;4841176;29;20058;-77
2022/10/25 09:12:47;;;;;;;4.13;1.58;;;;;;;8.24;100.00;101883.69;4833343;29;20053;-76
2022/10/25 09:15:26;;;;;;;3.55;1.90;;;;;;;8.24;100.00;101888.84;4839685;29;20054;-77
2022/10/25 09:18:07;;;;;;;2.92;1.25;;;;;;;8.24;100.00;101886.25;4834983;29;20087;-77
2022/10/25 09:20:43;;;;;;;2.00;1.00;;;;;;;8.25;100.00;101888.06;4832333;29;20062;-77
2022/10/25 09:23:22;;;;;;;3.20;1.38;;;;;;;8.22;100.00;101893.00;4835861;29;20046;-76
2022/10/25 09:25:56;;;;;;;3.78;1.55;;;;;;;8.26;100.00;101905.28;4832935;29;20216;-77
2022/10/25 09:28:35;;;;;;;2.88;1.38;;;;;;;8.27;100.00;101898.44;4834538;29;20050;-76
2022/10/25 09:31:11;;;;;;;2.42;1.20;;;;;;;8.27;100.00;101894.19;4832398;29;20508;-76
2022/10/25 09:33:43;;;;;;;4.15;1.17;;;;;;;8.28;100.00;101890.78;4833233;29;20081;-77
2022/10/25 09:36:13;;;;;;;;;;;;;;;8.25;100.00;101887.16;4836111;29;20558;-76
2022/10/25 09:38:46;;;;;;;2.80;1.35;;;;;;;8.22;100.00;101871.50;4836956;29;20340;-76
2022/10/25 09:41:21;;;;;;;4.95;0.90;;;;;;;8.30;100.00;101889.19;4830497;29;20051;-77
2022/10/25 09:43:57;;;;;;;5.07;1.30;;;;;;;8.28;100.00;101884.75;4831891;29;20097;-76
2022/10/25 09:46:36;;;;;;;11.85;1.90;;;;;;;8.21;100.00;101870.63;4838076;29;20065;-77
2022/10/25 09:49:15;;;;;;;6.63;1.25;;;;;;;8.32;100.00;101878.97;4838267;29;20420;-76
2022/10/25 09:51:58;;;;;;;3.20;1.30;;;;;;;8.32;100.00;101884.13;4839009;29;20064;-76
2022/10/25 09:54:31;;;;;;;2.33;1.08;;;;;;;8.35;100.00;101871.41;4834106;29;20149;-76
2022/10/25 09:57:01;;;;;;;2.28;1.35;;;;;;;8.39;100.00;101871.66;4838192;29;20493;-76
2022/10/25 09:59:30;;;;;;;3.20;1.25;;;;;;;8.43;100.00;101872.75;4836369;29;20330;-76
2022/10/25 10:02:00;;;;;;;3.15;1.75;;;;;;;8.44;100.00;101879.69;4833185;29;20569;-76
2022/10/25 10:04:35;;;;;;;2.70;1.38;;;;;;;8.46;100.00;101875.50;4836256;29;20061;-76
2022/10/25 10:07:08;;;;;;;4.50;1.48;;;;;;;8.45;100.00;101868.56;4831695;29;20046;-76
2022/10/25 10:09:41;;;;;;;3.78;1.90;;;;;;;8.47;100.00;101868.66;4838568;29;20065;-76
2022/10/25 10:12:19;;;;;;;4.45;2.00;;;;;;;8.48;100.00;101868.75;4828063;29;20266;-76
2022/10/25 10:14:55;;;;;;;6.68;1.83;;;;;;;8.48;100.00;101863.59;4828250;29;20696;-77
2022/10/25 10:17:28;;;;;;;3.55;2.10;;;;;;;8.48;100.00;101855.84;4834446;29;20054;-77
2022/10/25 10:20:15;;;;;;;3.17;1.60;;;;;;;8.45;100.00;101863.41;4835831;29;20101;-76
2022/10/25 10:22:52;;;;;;;10.65;1.63;;;;;;;8.45;100.00;101865.09;4835420;29;20054;-77
2022/10/25 10:25:25;;;;;;;2.00;1.35;;;;;;;8.45;100.00;101858.25;4832413;29;20940;-76
2022/10/25 10:27:56;;;;;;;4.93;2.22;;;;;;;8.47;100.00;101858.34;4828047;29;20090;-77
2022/10/25 10:30:28;;;;;;;7.38;2.33;;;;;;;8.46;100.00;101854.00;4828295;29;21212;-77
2022/10/25 10:33:01;;;;;;;3.80;2.20;;;;;;;8.47;100.00;101858.34;4829693;29;20046;-77
2022/10/25 10:35:32;;;;;;;5.95;2.03;;;;;;;8.49;100.00;101852.44;4833304;29;20516;-76
2022/10/25 10:38:23;;;;;;;3.92;1.83;;;;;;;8.55;100.00;101857.97;4832275;29;20444;-77
2022/10/25 10:40:54;;;;;;;7.65;2.40;;;;;;;8.56;100.00;101859.72;4826166;29;20047;-76
2022/10/25 10:43:30;;;;;;;4.68;2.35;;;;;;;8.58;100.00;101862.41;4832101;29;20062;-76
2022/10/25 10:46:05;;;;;;;3.22;1.60;;;;;;;8.58;100.00;101863.28;4834215;29;20057;-77
2022/10/25 10:48:39;;;;;;;8.43;3.13;;;;;;;8.62;100.00;101864.34;4832616;29;20060;-76
2022/10/25 10:51:08;;;;;;;9.15;2.72;;;;;;;8.64;100.00;101861.88;4835094;29;20073;-76
2022/10/25 10:53:37;;;;;;;7.35;2.08;;;;;;;8.66;100.00;101865.38;4830740;29;20049;-76
2022/10/25 10:56:08;;;;;;;8.07;2.20;;;;;;;8.70;100.00;101869.91;4838145;29;20465;-77
2022/10/25 10:58:40;;;;;;;12.32;3.58;;;;;;;8.73;100.00;101870.09;4834395;29;20708;-77
2022/10/25 11:01:10;;;;;;;;;;;;;;;8.75;100.00;101871.97;4833117;29;20054;-77
2022/10/25 11:03:59;;;;;;;6.50;2.10;;;;;;;8.77;100.00;101874.59;4832992;29;19935;-77
2022/10/25 11:06:30;;;;;;;4.90;1.98;;;;;;;8.79;100.00;101880.75;4832370;29;20453;-76
2022/10/25 11:09:19;;;;;;;7.22;2.67;;;;;;;8.81;100.00;101876.56;4832144;29;20126;-76
2022/10/25 11:12:06;;;;;;;8.20;2.22;;;;;;;8.77;100.00;101864.28;4830590;29;20050;-77
2022/10/25 11:14:35;;;;;;;9.18;2.15;;;;;;;8.77;100.00;101857.47;4833470;29;20057;-76
2022/10/25 11:17:09;;;;;;;5.43;1.95;;;;;;;8.80;100.00;101854.16;4829404;29;20691;-77
2022/10/25 11:20:05;;;;;;;5.18;2.40;;;;;;;8.78;100.00;101848.03;4830342;29;20435;-77
2022/10/25 11:22:54;;;;;;;6.00;2.17;;;;;;;8.76;100.00;101854.78;4831927;29;20152;-76
2022/10/25 11:25:38;;;;;;;6.18;2.33;;;;;;;8.74;100.00;101861.56;4839631;29;20054;-77
2022/10/25 11:28:40;;;;;;;5.82;2.13;;;;;;;8.74;100.00;101859.84;4829341;29;20068;-77
2022/10/25 11:31:24;;;;;;;6.35;2.38;;;;;;;8.74;100.00;101874.44;4836313;29;20413;-77
2022/10/25 11:34:12;;;;;;;5.88;2.28;;;;;;;8.76;100.00;101870.25;4830891;29;20644;-76
2022/10/25 11:37:06;;;;;;;7.82;2.67;;;;;;;8.79;100.00;101866.16;4834620;29;20046;-77
2022/10/25 11:39:46;;;;;;;4.80;2.00;;;;;;;8.83;100.00;101871.50;4831373;29;20568;-77
2022/10/25 11:42:35;;;;;;;8.10;1.90;;;;;;;8.83;100.00;101866.34;4833012;29;20099;-77
2022/10/25 11:45:25;;;;;;;5.32;2.30;;;;;;;8.84;100.00;101871.56;4827374;29;20042;-76
2022/10/25 11:48:09;;;;;;;4.43;2.25;;;;;;;8.89;100.00;101864.97;4829535;29;20062;-77